sensor_id;sensor_type;location;lat;lon;timestamp;P1;durP1;ratioP1;P2;durP2;ratioP2
23712;SDS011;12035;49.978;8.298;2024-01-15T00:04:55;21.13;;;8.60;;
23712;SDS011;12035;49.978;8.298;2024-01-15T00:09:54;21.85;;;9.43;;
23712;SDS011;12035;49.978;8.298;2024-01-15T00:14:51;20.02;;;8.75;;
23712;SDS011;12035;49.978;8.298;2024-01-15T00:19:48;25.30;;;9.60;;
23712;SDS011;12035;49.978;8.298;2024-01-15T00:24:45;23.15;;;9.18;;
23712;SDS011;12035;49.978;8.298;2024-01-15T00:29:43;25.50;;;10.25;;
23712;SDS011;12035;49.978;8.298;2024-01-15T00:34:40;24.55;;;10.20;;
23712;SDS011;12035;49.978;8.298;2024-01-15T00:39:37;28.08;;;9.93;;
23712;SDS011;12035;49.978;8.298;2024-01-15T00:44:34;28.40;;;10.52;;
23712;SDS011;12035;49.978;8.298;2024-01-15T00:49:32;31.02;;;10.73;;
23712;SDS011;12035;49.978;8.298;2024-01-15T00:54:29;28.35;;;10.82;;
23712;SDS011;12035;49.978;8.298;2024-01-15T00:59:26;23.45;;;9.40;;
23712;SDS011;12035;49.978;8.298;2024-01-15T01:04:23;27.88;;;10.50;;
23712;SDS011;12035;49.978;8.298;2024-01-15T01:09:22;25.45;;;9.70;;
23712;SDS011;12035;49.978;8.298;2024-01-15T01:14:19;25.63;;;9.90;;
23712;SDS011;12035;49.978;8.298;2024-01-15T01:19:16;25.98;;;10.43;;
23712;SDS011;12035;49.978;8.298;2024-01-15T01:24:13;23.40;;;9.57;;
23712;SDS011;12035;49.978;8.298;2024-01-15T01:29:12;24.63;;;9.48;;
23712;SDS011;12035;49.978;8.298;2024-01-15T01:34:09;22.77;;;9.15;;
23712;SDS011;12035;49.978;8.298;2024-01-15T01:39:06;25.35;;;9.25;;
23712;SDS011;12035;49.978;8.298;2024-01-15T01:44:03;26.48;;;10.38;;
23712;SDS011;12035;49.978;8.298;2024-01-15T01:49:01;21.98;;;8.88;;
23712;SDS011;12035;49.978;8.298;2024-01-15T01:54:00;23.38;;;9.35;;
23712;SDS011;12035;49.978;8.298;2024-01-15T01:58:58;22.23;;;9.15;;
23712;SDS011;12035;49.978;8.298;2024-01-15T02:03:55;21.10;;;9.10;;
23712;SDS011;12035;49.978;8.298;2024-01-15T02:08:53;21.45;;;9.18;;
23712;SDS011;12035;49.978;8.298;2024-01-15T02:13:51;21.08;;;8.40;;
23712;SDS011;12035;49.978;8.298;2024-01-15T02:18:48;19.77;;;8.48;;
23712;SDS011;12035;49.978;8.298;2024-01-15T02:23:47;19.10;;;8.00;;
23712;SDS011;12035;49.978;8.298;2024-01-15T02:28:44;20.50;;;8.73;;
23712;SDS011;12035;49.978;8.298;2024-01-15T02:33:42;20.20;;;8.30;;
23712;SDS011;12035;49.978;8.298;2024-01-15T02:38:41;20.65;;;7.97;;
23712;SDS011;12035;49.978;8.298;2024-01-15T02:43:39;18.83;;;7.72;;
23712;SDS011;12035;49.978;8.298;2024-01-15T02:48:36;22.50;;;8.15;;
23712;SDS011;12035;49.978;8.298;2024-01-15T02:53:33;17.90;;;7.70;;
23712;SDS011;12035;49.978;8.298;2024-01-15T02:58:32;20.38;;;7.97;;
23712;SDS011;12035;49.978;8.298;2024-01-15T03:03:30;18.40;;;7.72;;
23712;SDS011;12035;49.978;8.298;2024-01-15T03:08:28;17.98;;;7.93;;
23712;SDS011;12035;49.978;8.298;2024-01-15T03:13:25;18.15;;;7.38;;
23712;SDS011;12035;49.978;8.298;2024-01-15T03:18:22;19.58;;;8.02;;
23712;SDS011;12035;49.978;8.298;2024-01-15T03:23:21;17.90;;;7.90;;
23712;SDS011;12035;49.978;8.298;2024-01-15T03:28:17;17.77;;;7.90;;
23712;SDS011;12035;49.978;8.298;2024-01-15T03:33:15;17.40;;;7.55;;
23712;SDS011;12035;49.978;8.298;2024-01-15T03:38:11;19.17;;;7.85;;
23712;SDS011;12035;49.978;8.298;2024-01-15T03:43:10;18.67;;;7.90;;
23712;SDS011;12035;49.978;8.298;2024-01-15T03:48:07;16.63;;;7.05;;
23712;SDS011;12035;49.978;8.298;2024-01-15T03:53:04;22.27;;;8.88;;
23712;SDS011;12035;49.978;8.298;2024-01-15T03:58:01;19.60;;;8.05;;
23712;SDS011;12035;49.978;8.298;2024-01-15T04:03:00;20.88;;;8.15;;
23712;SDS011;12035;49.978;8.298;2024-01-15T04:07:56;19.65;;;7.30;;
23712;SDS011;12035;49.978;8.298;2024-01-15T04:12:53;21.25;;;7.90;;
23712;SDS011;12035;49.978;8.298;2024-01-15T04:17:51;22.20;;;7.90;;
23712;SDS011;12035;49.978;8.298;2024-01-15T04:22:50;17.92;;;6.97;;
23712;SDS011;12035;49.978;8.298;2024-01-15T04:27:47;17.55;;;6.78;;
23712;SDS011;12035;49.978;8.298;2024-01-15T04:32:44;18.30;;;7.40;;
23712;SDS011;12035;49.978;8.298;2024-01-15T04:37:41;17.42;;;6.95;;
23712;SDS011;12035;49.978;8.298;2024-01-15T04:42:39;17.00;;;6.50;;
23712;SDS011;12035;49.978;8.298;2024-01-15T04:47:36;17.17;;;7.13;;
23712;SDS011;12035;49.978;8.298;2024-01-15T04:52:33;14.40;;;6.50;;
23712;SDS011;12035;49.978;8.298;2024-01-15T04:57:30;15.10;;;6.43;;
23712;SDS011;12035;49.978;8.298;2024-01-15T05:02:28;17.88;;;7.50;;
23712;SDS011;12035;49.978;8.298;2024-01-15T05:07:25;18.13;;;7.32;;
23712;SDS011;12035;49.978;8.298;2024-01-15T05:12:22;17.67;;;7.25;;
23712;SDS011;12035;49.978;8.298;2024-01-15T05:17:19;17.38;;;7.57;;
23712;SDS011;12035;49.978;8.298;2024-01-15T05:22:18;21.55;;;8.25;;
23712;SDS011;12035;49.978;8.298;2024-01-15T05:27:16;20.52;;;8.23;;
23712;SDS011;12035;49.978;8.298;2024-01-15T05:32:13;18.88;;;7.93;;
23712;SDS011;12035;49.978;8.298;2024-01-15T05:37:10;16.38;;;6.93;;
23712;SDS011;12035;49.978;8.298;2024-01-15T05:42:08;19.40;;;8.05;;
23712;SDS011;12035;49.978;8.298;2024-01-15T05:47:05;19.85;;;7.63;;
23712;SDS011;12035;49.978;8.298;2024-01-15T05:52:03;15.88;;;6.88;;
23712;SDS011;12035;49.978;8.298;2024-01-15T05:57:01;17.13;;;7.60;;
23712;SDS011;12035;49.978;8.298;2024-01-15T06:01:59;21.33;;;8.52;;
23712;SDS011;12035;49.978;8.298;2024-01-15T06:06:56;16.42;;;7.32;;
23712;SDS011;12035;49.978;8.298;2024-01-15T06:11:54;18.77;;;7.47;;
23712;SDS011;12035;49.978;8.298;2024-01-15T06:16:51;17.50;;;8.05;;
23712;SDS011;12035;49.978;8.298;2024-01-15T06:21:50;20.63;;;7.72;;
23712;SDS011;12035;49.978;8.298;2024-01-15T06:26:47;15.57;;;7.07;;
23712;SDS011;12035;49.978;8.298;2024-01-15T06:31:45;17.95;;;7.65;;
23712;SDS011;12035;49.978;8.298;2024-01-15T06:36:43;19.45;;;8.20;;
23712;SDS011;12035;49.978;8.298;2024-01-15T06:41:42;21.90;;;8.20;;
23712;SDS011;12035;49.978;8.298;2024-01-15T06:46:41;19.35;;;8.27;;
23712;SDS011;12035;49.978;8.298;2024-01-15T06:51:39;19.63;;;8.13;;
23712;SDS011;12035;49.978;8.298;2024-01-15T06:56:36;18.00;;;8.20;;
23712;SDS011;12035;49.978;8.298;2024-01-15T07:01:35;17.85;;;8.35;;
23712;SDS011;12035;49.978;8.298;2024-01-15T07:06:32;19.45;;;8.02;;
23712;SDS011;12035;49.978;8.298;2024-01-15T07:11:30;21.73;;;8.15;;
23712;SDS011;12035;49.978;8.298;2024-01-15T07:16:28;17.90;;;7.15;;
23712;SDS011;12035;49.978;8.298;2024-01-15T07:21:29;17.27;;;7.75;;
23712;SDS011;12035;49.978;8.298;2024-01-15T07:26:26;18.67;;;8.30;;
23712;SDS011;12035;49.978;8.298;2024-01-15T07:31:23;17.42;;;7.75;;
23712;SDS011;12035;49.978;8.298;2024-01-15T07:36:20;22.35;;;8.30;;
23712;SDS011;12035;49.978;8.298;2024-01-15T07:41:18;20.75;;;9.18;;
23712;SDS011;12035;49.978;8.298;2024-01-15T07:46:15;20.80;;;9.27;;
23712;SDS011;12035;49.978;8.298;2024-01-15T07:51:12;18.15;;;8.45;;
23712;SDS011;12035;49.978;8.298;2024-01-15T07:56:09;20.35;;;8.82;;
23712;SDS011;12035;49.978;8.298;2024-01-15T08:01:08;18.98;;;7.93;;
23712;SDS011;12035;49.978;8.298;2024-01-15T08:06:05;18.98;;;8.70;;
23712;SDS011;12035;49.978;8.298;2024-01-15T08:11:04;21.27;;;9.15;;
23712;SDS011;12035;49.978;8.298;2024-01-15T08:16:01;19.10;;;8.45;;
23712;SDS011;12035;49.978;8.298;2024-01-15T08:21:01;20.17;;;8.65;;
23712;SDS011;12035;49.978;8.298;2024-01-15T08:25:58;21.70;;;8.65;;
23712;SDS011;12035;49.978;8.298;2024-01-15T08:30:55;19.33;;;8.32;;
23712;SDS011;12035;49.978;8.298;2024-01-15T08:35:52;18.48;;;8.60;;
23712;SDS011;12035;49.978;8.298;2024-01-15T08:40:50;17.33;;;7.57;;
23712;SDS011;12035;49.978;8.298;2024-01-15T08:45:48;15.23;;;7.22;;
23712;SDS011;12035;49.978;8.298;2024-01-15T08:50:46;14.68;;;6.97;;
23712;SDS011;12035;49.978;8.298;2024-01-15T08:55:43;14.73;;;6.88;;
23712;SDS011;12035;49.978;8.298;2024-01-15T09:00:42;13.98;;;6.85;;
23712;SDS011;12035;49.978;8.298;2024-01-15T09:05:39;14.73;;;7.00;;
23712;SDS011;12035;49.978;8.298;2024-01-15T09:10:36;14.25;;;6.63;;
23712;SDS011;12035;49.978;8.298;2024-01-15T09:15:33;13.18;;;6.40;;
23712;SDS011;12035;49.978;8.298;2024-01-15T09:20:31;13.65;;;6.78;;
23712;SDS011;12035;49.978;8.298;2024-01-15T09:25:28;14.45;;;6.63;;
23712;SDS011;12035;49.978;8.298;2024-01-15T09:30:26;13.60;;;6.03;;
23712;SDS011;12035;49.978;8.298;2024-01-15T09:35:23;12.98;;;6.22;;
23712;SDS011;12035;49.978;8.298;2024-01-15T09:40:21;16.50;;;7.28;;
23712;SDS011;12035;49.978;8.298;2024-01-15T09:45:19;14.70;;;7.15;;
23712;SDS011;12035;49.978;8.298;2024-01-15T09:50:16;15.63;;;7.50;;
23712;SDS011;12035;49.978;8.298;2024-01-15T09:55:14;16.40;;;7.38;;
23712;SDS011;12035;49.978;8.298;2024-01-15T10:00:15;14.10;;;7.15;;
23712;SDS011;12035;49.978;8.298;2024-01-15T10:05:14;16.15;;;7.47;;
23712;SDS011;12035;49.978;8.298;2024-01-15T10:10:11;16.10;;;7.68;;
23712;SDS011;12035;49.978;8.298;2024-01-15T10:15:09;15.27;;;7.20;;
23712;SDS011;12035;49.978;8.298;2024-01-15T10:20:09;17.25;;;7.72;;
23712;SDS011;12035;49.978;8.298;2024-01-15T10:25:09;16.33;;;8.18;;
23712;SDS011;12035;49.978;8.298;2024-01-15T10:30:07;17.80;;;8.48;;
23712;SDS011;12035;49.978;8.298;2024-01-15T10:35:06;13.18;;;6.72;;
23712;SDS011;12035;49.978;8.298;2024-01-15T10:40:06;14.65;;;7.90;;
23712;SDS011;12035;49.978;8.298;2024-01-15T10:45:05;14.73;;;7.75;;
23712;SDS011;12035;49.978;8.298;2024-01-15T10:50:04;14.38;;;7.00;;
23712;SDS011;12035;49.978;8.298;2024-01-15T10:55:05;12.90;;;7.30;;
23712;SDS011;12035;49.978;8.298;2024-01-15T11:00:04;15.43;;;7.32;;
23712;SDS011;12035;49.978;8.298;2024-01-15T11:05:04;13.88;;;7.22;;
23712;SDS011;12035;49.978;8.298;2024-01-15T11:10:02;15.30;;;7.85;;
23712;SDS011;12035;49.978;8.298;2024-01-15T11:15:05;14.05;;;7.40;;
23712;SDS011;12035;49.978;8.298;2024-01-15T11:20:05;15.40;;;7.57;;
23712;SDS011;12035;49.978;8.298;2024-01-15T11:25:12;13.13;;;7.15;;
23712;SDS011;12035;49.978;8.298;2024-01-15T11:30:11;14.60;;;7.45;;
23712;SDS011;12035;49.978;8.298;2024-01-15T11:35:09;12.93;;;7.07;;
23712;SDS011;12035;49.978;8.298;2024-01-15T11:40:08;14.88;;;8.15;;
23712;SDS011;12035;49.978;8.298;2024-01-15T11:45:07;11.10;;;6.47;;
23712;SDS011;12035;49.978;8.298;2024-01-15T11:50:04;11.05;;;6.28;;
23712;SDS011;12035;49.978;8.298;2024-01-15T11:55:16;12.25;;;5.78;;
23712;SDS011;12035;49.978;8.298;2024-01-15T12:00:18;11.15;;;6.30;;
23712;SDS011;12035;49.978;8.298;2024-01-15T12:05:17;11.98;;;6.00;;
23712;SDS011;12035;49.978;8.298;2024-01-15T12:10:17;10.82;;;6.05;;
23712;SDS011;12035;49.978;8.298;2024-01-15T12:15:15;12.48;;;6.20;;
23712;SDS011;12035;49.978;8.298;2024-01-15T12:20:12;13.13;;;6.85;;
23712;SDS011;12035;49.978;8.298;2024-01-15T12:25:10;13.27;;;6.57;;
23712;SDS011;12035;49.978;8.298;2024-01-15T12:30:12;15.85;;;7.28;;
23712;SDS011;12035;49.978;8.298;2024-01-15T12:35:10;14.48;;;7.15;;
23712;SDS011;12035;49.978;8.298;2024-01-15T12:40:08;12.10;;;6.40;;
23712;SDS011;12035;49.978;8.298;2024-01-15T12:45:07;16.25;;;6.80;;
23712;SDS011;12035;49.978;8.298;2024-01-15T12:50:09;13.35;;;6.88;;
23712;SDS011;12035;49.978;8.298;2024-01-15T12:55:08;9.63;;;5.18;;
23712;SDS011;12035;49.978;8.298;2024-01-15T13:00:06;10.48;;;4.80;;
23712;SDS011;12035;49.978;8.298;2024-01-15T13:05:08;9.75;;;4.45;;
23712;SDS011;12035;49.978;8.298;2024-01-15T13:10:07;9.80;;;5.15;;
23712;SDS011;12035;49.978;8.298;2024-01-15T13:15:05;8.32;;;4.63;;
23712;SDS011;12035;49.978;8.298;2024-01-15T13:20:07;13.68;;;5.55;;
23712;SDS011;12035;49.978;8.298;2024-01-15T13:25:06;12.20;;;5.38;;
23712;SDS011;12035;49.978;8.298;2024-01-15T13:30:04;12.82;;;5.68;;
23712;SDS011;12035;49.978;8.298;2024-01-15T13:35:03;9.57;;;4.70;;
23712;SDS011;12035;49.978;8.298;2024-01-15T13:40:06;8.65;;;4.03;;
23712;SDS011;12035;49.978;8.298;2024-01-15T13:45:05;9.27;;;4.28;;
23712;SDS011;12035;49.978;8.298;2024-01-15T13:50:03;7.68;;;3.90;;
23712;SDS011;12035;49.978;8.298;2024-01-15T13:55:01;9.40;;;3.92;;
23712;SDS011;12035;49.978;8.298;2024-01-15T13:59:59;8.20;;;4.20;;
23712;SDS011;12035;49.978;8.298;2024-01-15T14:04:56;6.90;;;3.85;;
23712;SDS011;12035;49.978;8.298;2024-01-15T14:09:53;8.50;;;3.95;;
23712;SDS011;12035;49.978;8.298;2024-01-15T14:14:51;7.80;;;3.88;;
23712;SDS011;12035;49.978;8.298;2024-01-15T14:19:49;7.88;;;3.30;;
23712;SDS011;12035;49.978;8.298;2024-01-15T14:24:46;6.88;;;3.08;;
23712;SDS011;12035;49.978;8.298;2024-01-15T14:29:43;6.90;;;3.40;;
23712;SDS011;12035;49.978;8.298;2024-01-15T14:34:41;6.47;;;3.30;;
23712;SDS011;12035;49.978;8.298;2024-01-15T14:39:40;6.32;;;3.00;;
23712;SDS011;12035;49.978;8.298;2024-01-15T14:44:38;6.30;;;2.72;;
23712;SDS011;12035;49.978;8.298;2024-01-15T14:49:36;6.18;;;2.95;;
23712;SDS011;12035;49.978;8.298;2024-01-15T14:54:33;5.55;;;2.90;;
23712;SDS011;12035;49.978;8.298;2024-01-15T14:59:31;7.50;;;3.00;;
23712;SDS011;12035;49.978;8.298;2024-01-15T15:04:28;7.38;;;2.70;;
23712;SDS011;12035;49.978;8.298;2024-01-15T15:09:25;6.18;;;2.97;;
23712;SDS011;12035;49.978;8.298;2024-01-15T15:14:22;6.53;;;2.67;;
23712;SDS011;12035;49.978;8.298;2024-01-15T15:19:20;6.10;;;2.42;;
23712;SDS011;12035;49.978;8.298;2024-01-15T15:24:17;5.38;;;2.55;;
23712;SDS011;12035;49.978;8.298;2024-01-15T15:29:14;7.57;;;2.47;;
23712;SDS011;12035;49.978;8.298;2024-01-15T15:34:12;6.53;;;2.35;;
23712;SDS011;12035;49.978;8.298;2024-01-15T15:39:10;10.07;;;2.80;;
23712;SDS011;12035;49.978;8.298;2024-01-15T15:44:12;6.53;;;2.65;;
23712;SDS011;12035;49.978;8.298;2024-01-15T15:49:11;5.70;;;2.50;;
23712;SDS011;12035;49.978;8.298;2024-01-15T15:54:10;5.80;;;2.30;;
23712;SDS011;12035;49.978;8.298;2024-01-15T15:59:07;6.28;;;2.28;;
23712;SDS011;12035;49.978;8.298;2024-01-15T16:04:04;6.32;;;2.45;;
23712;SDS011;12035;49.978;8.298;2024-01-15T16:09:01;6.07;;;1.98;;
23712;SDS011;12035;49.978;8.298;2024-01-15T16:14:00;4.10;;;1.70;;
23712;SDS011;12035;49.978;8.298;2024-01-15T16:18:57;7.25;;;1.70;;
23712;SDS011;12035;49.978;8.298;2024-01-15T16:23:54;6.68;;;2.20;;
23712;SDS011;12035;49.978;8.298;2024-01-15T16:28:51;4.97;;;1.30;;
23712;SDS011;12035;49.978;8.298;2024-01-15T16:33:50;4.60;;;1.70;;
23712;SDS011;12035;49.978;8.298;2024-01-15T16:38:47;5.72;;;1.65;;
23712;SDS011;12035;49.978;8.298;2024-01-15T16:43:44;4.68;;;1.23;;
23712;SDS011;12035;49.978;8.298;2024-01-15T16:48:43;4.03;;;1.55;;
23712;SDS011;12035;49.978;8.298;2024-01-15T16:53:41;4.68;;;1.40;;
23712;SDS011;12035;49.978;8.298;2024-01-15T16:58:38;3.58;;;1.35;;
23712;SDS011;12035;49.978;8.298;2024-01-15T17:03:35;4.70;;;1.35;;
23712;SDS011;12035;49.978;8.298;2024-01-15T17:08:32;4.43;;;1.40;;
23712;SDS011;12035;49.978;8.298;2024-01-15T17:13:31;5.25;;;1.45;;
23712;SDS011;12035;49.978;8.298;2024-01-15T17:18:29;5.93;;;1.42;;
23712;SDS011;12035;49.978;8.298;2024-01-15T17:23:26;2.75;;;1.10;;
23712;SDS011;12035;49.978;8.298;2024-01-15T17:28:24;4.03;;;1.35;;
23712;SDS011;12035;49.978;8.298;2024-01-15T17:33:22;5.78;;;1.30;;
23712;SDS011;12035;49.978;8.298;2024-01-15T17:38:19;3.78;;;1.25;;
23712;SDS011;12035;49.978;8.298;2024-01-15T17:43:16;4.97;;;1.27;;
23712;SDS011;12035;49.978;8.298;2024-01-15T17:48:14;3.75;;;0.93;;
23712;SDS011;12035;49.978;8.298;2024-01-15T17:53:12;4.20;;;1.20;;
23712;SDS011;12035;49.978;8.298;2024-01-15T17:58:09;5.30;;;2.05;;
23712;SDS011;12035;49.978;8.298;2024-01-15T18:03:07;7.18;;;1.60;;
23712;SDS011;12035;49.978;8.298;2024-01-15T18:08:04;3.97;;;1.20;;
23712;SDS011;12035;49.978;8.298;2024-01-15T18:13:03;3.70;;;1.30;;
23712;SDS011;12035;49.978;8.298;2024-01-15T18:18:00;3.55;;;1.10;;
23712;SDS011;12035;49.978;8.298;2024-01-15T18:22:57;5.25;;;1.42;;
23712;SDS011;12035;49.978;8.298;2024-01-15T18:27:54;3.25;;;1.23;;
23712;SDS011;12035;49.978;8.298;2024-01-15T18:32:52;3.50;;;1.40;;
23712;SDS011;12035;49.978;8.298;2024-01-15T18:37:49;7.57;;;1.40;;
23712;SDS011;12035;49.978;8.298;2024-01-15T18:42:47;4.28;;;1.40;;
23712;SDS011;12035;49.978;8.298;2024-01-15T18:47:44;3.55;;;1.10;;
23712;SDS011;12035;49.978;8.298;2024-01-15T18:52:43;3.03;;;1.20;;
23712;SDS011;12035;49.978;8.298;2024-01-15T18:57:41;3.00;;;0.95;;
23712;SDS011;12035;49.978;8.298;2024-01-15T19:02:38;2.88;;;1.13;;
23712;SDS011;12035;49.978;8.298;2024-01-15T19:07:35;3.00;;;1.00;;
23712;SDS011;12035;49.978;8.298;2024-01-15T19:12:35;1.85;;;0.90;;
23712;SDS011;12035;49.978;8.298;2024-01-15T19:17:32;2.58;;;0.80;;
23712;SDS011;12035;49.978;8.298;2024-01-15T19:22:29;3.08;;;1.00;;
23712;SDS011;12035;49.978;8.298;2024-01-15T19:27:26;4.05;;;1.48;;
23712;SDS011;12035;49.978;8.298;2024-01-15T19:32:25;4.60;;;0.95;;
23712;SDS011;12035;49.978;8.298;2024-01-15T19:37:22;4.63;;;1.20;;
23712;SDS011;12035;49.978;8.298;2024-01-15T19:42:20;6.43;;;1.13;;
23712;SDS011;12035;49.978;8.298;2024-01-15T19:47:17;4.82;;;0.98;;
23712;SDS011;12035;49.978;8.298;2024-01-15T19:52:15;4.43;;;1.20;;
23712;SDS011;12035;49.978;8.298;2024-01-15T19:57:12;3.70;;;1.05;;
23712;SDS011;12035;49.978;8.298;2024-01-15T20:02:09;5.15;;;1.23;;
23712;SDS011;12035;49.978;8.298;2024-01-15T20:07:06;4.45;;;1.25;;
23712;SDS011;12035;49.978;8.298;2024-01-15T20:12:05;9.65;;;2.72;;
23712;SDS011;12035;49.978;8.298;2024-01-15T20:17:03;3.35;;;1.40;;
23712;SDS011;12035;49.978;8.298;2024-01-15T20:22:00;7.07;;;1.60;;
23712;SDS011;12035;49.978;8.298;2024-01-15T20:26:57;3.83;;;1.42;;
23712;SDS011;12035;49.978;8.298;2024-01-15T20:31:55;5.20;;;1.23;;
23712;SDS011;12035;49.978;8.298;2024-01-15T20:36:52;3.65;;;1.10;;
23712;SDS011;12035;49.978;8.298;2024-01-15T20:41:49;2.70;;;1.00;;
23712;SDS011;12035;49.978;8.298;2024-01-15T20:46:46;3.63;;;1.15;;
23712;SDS011;12035;49.978;8.298;2024-01-15T20:51:45;6.38;;;1.60;;
23712;SDS011;12035;49.978;8.298;2024-01-15T20:56:42;4.70;;;1.33;;
23712;SDS011;12035;49.978;8.298;2024-01-15T21:01:40;6.28;;;1.50;;
23712;SDS011;12035;49.978;8.298;2024-01-15T21:06:37;4.90;;;1.80;;
23712;SDS011;12035;49.978;8.298;2024-01-15T21:11:35;4.72;;;1.55;;
23712;SDS011;12035;49.978;8.298;2024-01-15T21:16:32;5.47;;;2.03;;
23712;SDS011;12035;49.978;8.298;2024-01-15T21:21:29;5.13;;;1.45;;
23712;SDS011;12035;49.978;8.298;2024-01-15T21:26:27;5.57;;;1.85;;
23712;SDS011;12035;49.978;8.298;2024-01-15T21:31:25;5.05;;;1.48;;
23712;SDS011;12035;49.978;8.298;2024-01-15T21:36:22;8.95;;;2.80;;
23712;SDS011;12035;49.978;8.298;2024-01-15T21:41:19;6.65;;;1.90;;
23712;SDS011;12035;49.978;8.298;2024-01-15T21:46:16;5.60;;;1.70;;
23712;SDS011;12035;49.978;8.298;2024-01-15T21:51:14;7.78;;;1.50;;
23712;SDS011;12035;49.978;8.298;2024-01-15T21:56:11;4.68;;;1.60;;
23712;SDS011;12035;49.978;8.298;2024-01-15T22:01:08;3.67;;;1.25;;
23712;SDS011;12035;49.978;8.298;2024-01-15T22:06:05;4.80;;;1.25;;
23712;SDS011;12035;49.978;8.298;2024-01-15T22:11:05;3.63;;;1.10;;
23712;SDS011;12035;49.978;8.298;2024-01-15T22:16:02;3.47;;;1.00;;
23712;SDS011;12035;49.978;8.298;2024-01-15T22:20:59;4.82;;;1.27;;
23712;SDS011;12035;49.978;8.298;2024-01-15T22:25:56;4.15;;;1.40;;
23712;SDS011;12035;49.978;8.298;2024-01-15T22:30:55;7.10;;;1.67;;
23712;SDS011;12035;49.978;8.298;2024-01-15T22:35:52;4.03;;;1.60;;
23712;SDS011;12035;49.978;8.298;2024-01-15T22:40:48;3.28;;;1.50;;
23712;SDS011;12035;49.978;8.298;2024-01-15T22:45:46;4.30;;;1.65;;
23712;SDS011;12035;49.978;8.298;2024-01-15T22:50:44;8.15;;;2.03;;
23712;SDS011;12035;49.978;8.298;2024-01-15T22:55:41;4.50;;;1.92;;
23712;SDS011;12035;49.978;8.298;2024-01-15T23:00:38;5.03;;;1.85;;
23712;SDS011;12035;49.978;8.298;2024-01-15T23:05:38;3.95;;;1.88;;
23712;SDS011;12035;49.978;8.298;2024-01-15T23:10:36;7.55;;;2.10;;
23712;SDS011;12035;49.978;8.298;2024-01-15T23:15:34;4.55;;;1.98;;
23712;SDS011;12035;49.978;8.298;2024-01-15T23:20:31;6.25;;;2.05;;
23712;SDS011;12035;49.978;8.298;2024-01-15T23:25:28;4.93;;;1.90;;
23712;SDS011;12035;49.978;8.298;2024-01-15T23:30:26;7.65;;;2.28;;
23712;SDS011;12035;49.978;8.298;2024-01-15T23:35:23;4.43;;;2.03;;
23712;SDS011;12035;49.978;8.298;2024-01-15T23:40:20;3.78;;;1.92;;
23712;SDS011;12035;49.978;8.298;2024-01-15T23:45:18;5.20;;;2.28;;
23712;SDS011;12035;49.978;8.298;2024-01-15T23:50:16;5.53;;;2.20;;
23712;SDS011;12035;49.978;8.298;2024-01-15T23:55:13;6.45;;;2.17;;
